KAL035 RKSI-KATL
Flight info
| Callsign | KAL035 |
|---|---|
| Flight time | N/A |
| Altitude | 33000 |
| Route | EGOBA2H EGOBA Y697 LANAT Y51 SAMON Y142 GTC Y512 ADNAP R591 ADGOR DCT AGEDI DCT AKISU DCT ASPIN/N0492F350 DCT AAMYY DCT SYA DCT AMOND DCT ALDOZ DCT ALUFF DCT SPY DCT AKN DCT MDO/N0485F370 DCT YAK DCT 59N130W DCT YXJ DCT YEX DCT 52N110W 50N104W DCT MOT/N0484F390 DCT DSM Q19 STL DCT TINGS DCT HITMN DCT NEWBB DCT IHAVE DCT MTHEW CHPPR1 |
| Aircraft | B77W/H-SDE2FGHIJ1J3J5M1P2RWXYZ/LB1D1 |
Departure
| Time | N/A |
|---|---|
| Airport | Incheon International Airport (RKSI) |
Arrival
| Time | 2026-05-06 08:15 |
|---|---|
| Airport | Hartsfield Jackson Atlanta International Airport (KATL) |
| Time | Latitude | Longitude | Altitude | Speed | Heading |
|---|---|---|---|---|---|
| 2026-05-06 07:32 | 34.68048 | -84.98546 | 19581 ft | 334 kts | 314° |
| 2026-05-06 07:33 | 34.69825 | -85.00373 | 19000 ft | 333 kts | 311° |
| 2026-05-06 07:33 | 34.71288 | -85.02515 | 18427 ft | 328 kts | 298° |
| 2026-05-06 07:33 | 34.72265 | -85.05000 | 17808 ft | 326 kts | 286° |
| 2026-05-06 07:33 | 34.72720 | -85.07693 | 17157 ft | 326 kts | 274° |
| 2026-05-06 07:34 | 34.72637 | -85.10449 | 16545 ft | 328 kts | 262° |
| 2026-05-06 07:34 | 34.72030 | -85.13092 | 15896 ft | 318 kts | 250° |
| 2026-05-06 07:34 | 34.70876 | -85.15343 | 15263 ft | 306 kts | 233° |
| 2026-05-06 07:34 | 34.69186 | -85.16866 | 14647 ft | 305 kts | 211° |
| 2026-05-06 07:35 | 34.67136 | -85.17402 | 14060 ft | 311 kts | 188° |
| 2026-05-06 07:35 | 34.64964 | -85.17088 | 13435 ft | 310 kts | 177° |
| 2026-05-06 07:35 | 34.62826 | -85.16475 | 13134 ft | 325 kts | 173° |
| 2026-05-06 07:35 | 34.60605 | -85.15711 | 12990 ft | 336 kts | 171° |
| 2026-05-06 07:36 | 34.58355 | -85.14857 | 12932 ft | 338 kts | 169° |
| 2026-05-06 07:36 | 34.56116 | -85.13963 | 12936 ft | 338 kts | 169° |
| 2026-05-06 07:36 | 34.53919 | -85.13068 | 12951 ft | 338 kts | 169° |
| 2026-05-06 07:36 | 34.51608 | -85.12120 | 12939 ft | 339 kts | 168° |
| 2026-05-06 07:37 | 34.49377 | -85.11203 | 12935 ft | 338 kts | 169° |
| 2026-05-06 07:37 | 34.47160 | -85.10290 | 12917 ft | 337 kts | 168° |
| 2026-05-06 07:37 | 34.44942 | -85.09378 | 12918 ft | 336 kts | 168° |
| 2026-05-06 07:37 | 34.42726 | -85.08469 | 12923 ft | 335 kts | 168° |
| 2026-05-06 07:38 | 34.40518 | -85.07563 | 12925 ft | 335 kts | 168° |
| 2026-05-06 07:38 | 34.38313 | -85.06659 | 12927 ft | 335 kts | 168° |
| 2026-05-06 07:38 | 34.36099 | -85.05752 | 12924 ft | 335 kts | 168° |
| 2026-05-06 07:38 | 34.33925 | -85.04862 | 12930 ft | 335 kts | 168° |
| 2026-05-06 07:39 | 34.31650 | -85.03931 | 12923 ft | 336 kts | 168° |
| 2026-05-06 07:39 | 34.29431 | -85.03024 | 12927 ft | 336 kts | 168° |
| 2026-05-06 07:39 | 34.27216 | -85.02118 | 12926 ft | 337 kts | 168° |
| 2026-05-06 07:39 | 34.24995 | -85.01211 | 12926 ft | 337 kts | 168° |
| 2026-05-06 07:40 | 34.22775 | -85.00303 | 12954 ft | 337 kts | 168° |
| 2026-05-06 07:40 | 34.20548 | -84.99393 | 12953 ft | 337 kts | 168° |
| 2026-05-06 07:40 | 34.18345 | -84.98494 | 12968 ft | 337 kts | 168° |
| 2026-05-06 07:40 | 34.16108 | -84.97581 | 12957 ft | 337 kts | 168° |
| 2026-05-06 07:41 | 34.13931 | -84.96537 | 12921 ft | 340 kts | 156° |
| 2026-05-06 07:41 | 34.11987 | -84.94816 | 12765 ft | 351 kts | 146° |
| 2026-05-06 07:41 | 34.10102 | -84.92941 | 12630 ft | 349 kts | 146° |
| 2026-05-06 07:41 | 34.08244 | -84.91106 | 12439 ft | 343 kts | 146° |
| 2026-05-06 07:42 | 34.06401 | -84.89324 | 12224 ft | 335 kts | 147° |
| 2026-05-06 07:42 | 34.04596 | -84.87604 | 12046 ft | 327 kts | 147° |
| 2026-05-06 07:42 | 34.02821 | -84.85925 | 11816 ft | 322 kts | 148° |
| 2026-05-06 07:42 | 34.01064 | -84.84268 | 11502 ft | 319 kts | 148° |
| 2026-05-06 07:43 | 33.99289 | -84.82596 | 11170 ft | 318 kts | 148° |
| 2026-05-06 07:43 | 33.97555 | -84.80962 | 10862 ft | 316 kts | 148° |
| 2026-05-06 07:43 | 33.95832 | -84.79337 | 10565 ft | 314 kts | 148° |
| 2026-05-06 07:43 | 33.94093 | -84.77697 | 10278 ft | 312 kts | 147° |
| 2026-05-06 07:44 | 33.92417 | -84.76118 | 9960 ft | 311 kts | 147° |
| 2026-05-06 07:44 | 33.90725 | -84.74525 | 9652 ft | 309 kts | 147° |
| 2026-05-06 07:44 | 33.89045 | -84.72943 | 9471 ft | 301 kts | 147° |
| 2026-05-06 07:44 | 33.87408 | -84.71401 | 9294 ft | 295 kts | 148° |
| 2026-05-06 07:45 | 33.85800 | -84.69889 | 8991 ft | 293 kts | 148° |
| 2026-05-06 07:45 | 33.84180 | -84.68369 | 8693 ft | 292 kts | 147° |
| 2026-05-06 07:45 | 33.82607 | -84.66893 | 8397 ft | 291 kts | 147° |
| 2026-05-06 07:45 | 33.80990 | -84.65375 | 8099 ft | 289 kts | 147° |
| 2026-05-06 07:46 | 33.79404 | -84.63886 | 7820 ft | 287 kts | 147° |
| 2026-05-06 07:46 | 33.77832 | -84.62413 | 7555 ft | 285 kts | 147° |
| 2026-05-06 07:46 | 33.76274 | -84.60952 | 7287 ft | 283 kts | 146° |
| 2026-05-06 07:46 | 33.74730 | -84.59491 | 6988 ft | 281 kts | 142° |
| 2026-05-06 07:47 | 33.73566 | -84.57597 | 6580 ft | 289 kts | 112° |
| 2026-05-06 07:47 | 33.73242 | -84.55234 | 6282 ft | 285 kts | 90° |
| 2026-05-06 07:47 | 33.73266 | -84.52812 | 5886 ft | 287 kts | 90° |
| 2026-05-06 07:47 | 33.73284 | -84.50452 | 5636 ft | 284 kts | 91° |
| 2026-05-06 07:48 | 33.73291 | -84.48855 | 5481 ft | 282 kts | 91° |
| 2026-05-06 07:48 | 33.73295 | -84.46501 | 5218 ft | 280 kts | 92° |
| 2026-05-06 07:48 | 33.73297 | -84.44177 | 5074 ft | 274 kts | 92° |
| 2026-05-06 07:48 | 33.73297 | -84.41866 | 5031 ft | 274 kts | 92° |
| 2026-05-06 07:49 | 33.73297 | -84.39589 | 5006 ft | 279 kts | 92° |
| 2026-05-06 07:49 | 33.73297 | -84.37243 | 5014 ft | 281 kts | 93° |
| 2026-05-06 07:49 | 33.73297 | -84.34866 | 5002 ft | 280 kts | 93° |
| 2026-05-06 07:49 | 33.73297 | -84.32531 | 4990 ft | 279 kts | 93° |
| 2026-05-06 07:50 | 33.73295 | -84.30208 | 4992 ft | 277 kts | 93° |
| 2026-05-06 07:50 | 33.73297 | -84.27896 | 4989 ft | 277 kts | 93° |
| 2026-05-06 07:50 | 33.73300 | -84.25584 | 4984 ft | 277 kts | 93° |
| 2026-05-06 07:50 | 33.73303 | -84.23208 | 4983 ft | 277 kts | 93° |
| 2026-05-06 07:51 | 33.73305 | -84.20868 | 4988 ft | 277 kts | 93° |
| 2026-05-06 07:51 | 33.73307 | -84.18549 | 4977 ft | 278 kts | 93° |
| 2026-05-06 07:51 | 33.73307 | -84.16218 | 4979 ft | 278 kts | 93° |
| 2026-05-06 07:51 | 33.73308 | -84.13831 | 4988 ft | 279 kts | 93° |
| 2026-05-06 07:52 | 33.73311 | -84.11435 | 4989 ft | 280 kts | 93° |
| 2026-05-06 07:52 | 33.73315 | -84.09092 | 4990 ft | 281 kts | 93° |
| 2026-05-06 07:52 | 33.73317 | -84.06701 | 4993 ft | 282 kts | 93° |
| 2026-05-06 07:52 | 33.73319 | -84.04350 | 4989 ft | 282 kts | 93° |
| 2026-05-06 07:53 | 33.73286 | -84.01995 | 4996 ft | 281 kts | 95° |
| 2026-05-06 07:53 | 33.73041 | -83.99761 | 4977 ft | 268 kts | 117° |
| 2026-05-06 07:53 | 33.71960 | -83.98074 | 5000 ft | 253 kts | 150° |
| 2026-05-06 07:53 | 33.70381 | -83.97255 | 5004 ft | 246 kts | 173° |
| 2026-05-06 07:54 | 33.68638 | -83.97177 | 5004 ft | 242 kts | 193° |
| 2026-05-06 07:54 | 33.67048 | -83.97857 | 5009 ft | 239 kts | 212° |
| 2026-05-06 07:54 | 33.65752 | -83.99088 | 5010 ft | 238 kts | 230° |
| 2026-05-06 07:54 | 33.64991 | -84.00883 | 5005 ft | 237 kts | 255° |
| 2026-05-06 07:55 | 33.64894 | -84.02839 | 4994 ft | 225 kts | 267° |
| 2026-05-06 07:55 | 33.64906 | -84.04643 | 4971 ft | 205 kts | 266° |
| 2026-05-06 07:55 | 33.64915 | -84.06248 | 4959 ft | 180 kts | 266° |
| 2026-05-06 07:55 | 33.64919 | -84.07724 | 4970 ft | 171 kts | 265° |
| 2026-05-06 07:56 | 33.64922 | -84.09173 | 4980 ft | 172 kts | 265° |
| 2026-05-06 07:56 | 33.64925 | -84.10617 | 4989 ft | 174 kts | 266° |
| 2026-05-06 07:56 | 33.64929 | -84.12058 | 4997 ft | 172 kts | 265° |
| 2026-05-06 07:56 | 33.64936 | -84.13027 | 4989 ft | 173 kts | 266° |
| 2026-05-06 07:57 | 33.64950 | -84.14457 | 4771 ft | 165 kts | 265° |
| 2026-05-06 07:57 | 33.64957 | -84.15812 | 4585 ft | 152 kts | 264° |
| 2026-05-06 07:57 | 33.64960 | -84.17095 | 4450 ft | 144 kts | 264° |
| 2026-05-06 07:57 | 33.64958 | -84.18279 | 4269 ft | 139 kts | 263° |
| 2026-05-06 07:58 | 33.64959 | -84.19460 | 4134 ft | 141 kts | 263° |
| 2026-05-06 07:58 | 33.64959 | -84.20636 | 4076 ft | 140 kts | 263° |
| 2026-05-06 07:58 | 33.64957 | -84.21829 | 4034 ft | 142 kts | 264° |
| 2026-05-06 07:58 | 33.64955 | -84.23026 | 3878 ft | 144 kts | 264° |
| 2026-05-06 07:59 | 33.64957 | -84.24218 | 3710 ft | 141 kts | 264° |
| 2026-05-06 07:59 | 33.64958 | -84.25380 | 3520 ft | 138 kts | 262° |
| 2026-05-06 07:59 | 33.64957 | -84.26535 | 3372 ft | 140 kts | 262° |
| 2026-05-06 07:59 | 33.64956 | -84.27736 | 3167 ft | 139 kts | 262° |
| 2026-05-06 08:00 | 33.64955 | -84.28911 | 2979 ft | 139 kts | 262° |
| 2026-05-06 08:00 | 33.64955 | -84.30060 | 2797 ft | 138 kts | 262° |
| 2026-05-06 08:00 | 33.64954 | -84.31217 | 2621 ft | 138 kts | 263° |
| 2026-05-06 08:00 | 33.64955 | -84.32438 | 2428 ft | 136 kts | 263° |
| 2026-05-06 08:01 | 33.64955 | -84.33590 | 2250 ft | 136 kts | 263° |
| 2026-05-06 08:01 | 33.64955 | -84.34731 | 2064 ft | 137 kts | 264° |
| 2026-05-06 08:01 | 33.64955 | -84.35883 | 1871 ft | 139 kts | 263° |
| 2026-05-06 08:01 | 33.64958 | -84.37092 | 1696 ft | 143 kts | 266° |
| 2026-05-06 08:02 | 33.64954 | -84.37892 | 1542 ft | 147 kts | 265° |
| 2026-05-06 08:02 | 33.64947 | -84.39131 | 1405 ft | 149 kts | 267° |
| 2026-05-06 08:02 | 33.64947 | -84.40367 | 1202 ft | 149 kts | 269° |
| 2026-05-06 08:02 | 33.64919 | -84.41692 | 1099 ft | 137 kts | 262° |
| 2026-05-06 08:03 | 33.64773 | -84.42582 | 1304 ft | 115 kts | 252° |
| 2026-05-06 08:03 | 33.64659 | -84.43654 | 2433 ft | 108 kts | 265° |
| 2026-05-06 08:03 | 33.64936 | -84.44519 | 3966 ft | 121 kts | 292° |
| 2026-05-06 08:03 | 33.65600 | -84.45569 | 4439 ft | 181 kts | 301° |
| 2026-05-06 08:04 | 33.66592 | -84.46387 | 4189 ft | 197 kts | 344° |
| 2026-05-06 08:04 | 33.67905 | -84.46076 | 4145 ft | 212 kts | 32° |
| 2026-05-06 08:04 | 33.69140 | -84.45051 | 4093 ft | 214 kts | 20° |
| 2026-05-06 08:04 | 33.70569 | -84.45035 | 4034 ft | 199 kts | 329° |
| 2026-05-06 08:05 | 33.71445 | -84.46139 | 4001 ft | 178 kts | 283° |
| 2026-05-06 08:05 | 33.71744 | -84.47563 | 3981 ft | 178 kts | 284° |
| 2026-05-06 08:05 | 33.72577 | -84.48732 | 3979 ft | 194 kts | 322° |
| 2026-05-06 08:05 | 33.73918 | -84.49126 | 3971 ft | 208 kts | 359° |
| 2026-05-06 08:06 | 33.75257 | -84.48484 | 3954 ft | 213 kts | 43° |
| 2026-05-06 08:06 | 33.75929 | -84.46979 | 3966 ft | 203 kts | 90° |
| 2026-05-06 08:06 | 33.75693 | -84.45345 | 3984 ft | 194 kts | 114° |
| 2026-05-06 08:06 | 33.75432 | -84.44301 | 3976 ft | 192 kts | 114° |
| 2026-05-06 08:07 | 33.75043 | -84.42739 | 3960 ft | 188 kts | 114° |
| 2026-05-06 08:07 | 33.74640 | -84.41281 | 3956 ft | 183 kts | 120° |
| 2026-05-06 08:07 | 33.74122 | -84.39804 | 3983 ft | 202 kts | 121° |
| 2026-05-06 08:07 | 33.73532 | -84.38131 | 3995 ft | 209 kts | 116° |
| 2026-05-06 08:08 | 33.73365 | -84.36432 | 3982 ft | 197 kts | 98° |
| 2026-05-06 08:08 | 33.73222 | -84.34838 | 3980 ft | 189 kts | 106° |
| 2026-05-06 08:08 | 33.73022 | -84.33260 | 3975 ft | 189 kts | 106° |
| 2026-05-06 08:08 | 33.72818 | -84.31684 | 3985 ft | 190 kts | 106° |
| 2026-05-06 08:09 | 33.72611 | -84.30118 | 3992 ft | 192 kts | 107° |
| 2026-05-06 08:09 | 33.72405 | -84.28526 | 4002 ft | 192 kts | 106° |
| 2026-05-06 08:09 | 33.72092 | -84.26983 | 3968 ft | 178 kts | 130° |
| 2026-05-06 08:09 | 33.71248 | -84.26103 | 4013 ft | 151 kts | 156° |
| 2026-05-06 08:10 | 33.70395 | -84.25342 | 3984 ft | 150 kts | 149° |
| 2026-05-06 08:10 | 33.69564 | -84.24623 | 3972 ft | 143 kts | 171° |
| 2026-05-06 08:10 | 33.68577 | -84.24619 | 3998 ft | 138 kts | 191° |
| 2026-05-06 08:10 | 33.67532 | -84.24708 | 3986 ft | 142 kts | 189° |
| 2026-05-06 08:11 | 33.66627 | -84.25014 | 3659 ft | 134 kts | 223° |
| 2026-05-06 08:11 | 33.66307 | -84.26026 | 3491 ft | 135 kts | 252° |
| 2026-05-06 08:11 | 33.66013 | -84.27142 | 3286 ft | 134 kts | 244° |
| 2026-05-06 08:11 | 33.65708 | -84.28124 | 3108 ft | 132 kts | 244° |
| 2026-05-06 08:12 | 33.65378 | -84.29188 | 2933 ft | 131 kts | 244° |
| 2026-05-06 08:12 | 33.65131 | -84.30275 | 2758 ft | 135 kts | 257° |
| 2026-05-06 08:12 | 33.65044 | -84.31380 | 2600 ft | 137 kts | 256° |
| 2026-05-06 08:12 | 33.64983 | -84.32174 | 2472 ft | 138 kts | 260° |
| 2026-05-06 08:13 | 33.64958 | -84.33331 | 2288 ft | 135 kts | 263° |
| 2026-05-06 08:13 | 33.64956 | -84.34831 | 2064 ft | 136 kts | 264° |
| 2026-05-06 08:13 | 33.64956 | -84.35639 | 1915 ft | 139 kts | 264° |
| 2026-05-06 08:13 | 33.64964 | -84.36777 | 1710 ft | 143 kts | 266° |
| 2026-05-06 08:14 | 33.64958 | -84.38060 | 1519 ft | 147 kts | 267° |
| 2026-05-06 08:14 | 33.64948 | -84.39294 | 1387 ft | 149 kts | 268° |
| 2026-05-06 08:14 | 33.64952 | -84.40588 | 1160 ft | 149 kts | 269° |
| 2026-05-06 08:14 | 33.64940 | -84.41930 | 1059 ft | 136 kts | 270° |
| 2026-05-06 08:15 | 33.64941 | -84.42655 | 1041 ft | 117 kts | 269° |
| 2026-05-06 08:15 | 33.64947 | -84.43604 | 1040 ft | 47 kts | 271° |
| 2026-05-06 08:15 | 33.64950 | -84.43709 | 1041 ft | 1 kts | 272° |
| 2026-05-06 08:15 | 33.64950 | -84.43732 | 1041 ft | 3 kts | 271° |
| 2026-05-06 08:16 | 33.64951 | -84.43761 | 1041 ft | 4 kts | 272° |
| 2026-05-06 08:16 | 33.64951 | -84.43788 | 1041 ft | 5 kts | 271° |
| 2026-05-06 08:16 | 33.64952 | -84.43824 | 1040 ft | 1 kts | 272° |
| 2026-05-06 08:16 | 33.64928 | -84.43876 | 1040 ft | 15 kts | 214° |
| 2026-05-06 08:17 | 33.64860 | -84.43879 | 1040 ft | 0 kts | 172° |
| 2026-05-06 08:17 | 33.64859 | -84.43879 | 1040 ft | 0 kts | 172° |
| 2026-05-06 08:20 | 33.64852 | -84.43877 | 1040 ft | 8 kts | 167° |
| 2026-05-06 08:20 | 33.64782 | -84.43835 | 1040 ft | 26 kts | 148° |
| 2026-05-06 08:20 | 33.64655 | -84.43819 | 1040 ft | 7 kts | 182° |
| 2026-05-06 08:20 | 33.64596 | -84.43821 | 1040 ft | 7 kts | 181° |
| 2026-05-06 08:21 | 33.64572 | -84.43822 | 1040 ft | 1 kts | 181° |
| 2026-05-06 08:21 | 33.64563 | -84.43822 | 1040 ft | 2 kts | 181° |
| 2026-05-06 08:21 | 33.64538 | -84.43823 | 1040 ft | 5 kts | 181° |
| 2026-05-06 08:21 | 33.64491 | -84.43822 | 1040 ft | 8 kts | 168° |
| 2026-05-06 08:22 | 33.64457 | -84.43788 | 1040 ft | 4 kts | 122° |
| 2026-05-06 08:22 | 33.64457 | -84.43749 | 1040 ft | 6 kts | 83° |
| 2026-05-06 08:22 | 33.64459 | -84.43681 | 1040 ft | 9 kts | 89° |
| 2026-05-06 08:22 | 33.64460 | -84.43606 | 1040 ft | 8 kts | 89° |
| 2026-05-06 08:23 | 33.64460 | -84.43582 | 1040 ft | 3 kts | 90° |
| 2026-05-06 08:23 | 33.64460 | -84.43539 | 1040 ft | 7 kts | 90° |
| 2026-05-06 08:23 | 33.64460 | -84.43466 | 1040 ft | 11 kts | 90° |
| 2026-05-06 08:23 | 33.64460 | -84.43378 | 1040 ft | 0 kts | 90° |
| 2026-05-06 08:24 | 33.64460 | -84.43362 | 1040 ft | 4 kts | 90° |
| 2026-05-06 08:24 | 33.64460 | -84.43314 | 1040 ft | 8 kts | 90° |
| 2026-05-06 08:24 | 33.64460 | -84.43262 | 1041 ft | 10 kts | 90° |
| 2026-05-06 08:24 | 33.64460 | -84.43158 | 1041 ft | 14 kts | 90° |
| 2026-05-06 08:25 | 33.64460 | -84.43026 | 1040 ft | 17 kts | 90° |
| 2026-05-06 08:25 | 33.64461 | -84.42981 | 1040 ft | 3 kts | 90° |
| 2026-05-06 08:25 | 33.64461 | -84.42940 | 1040 ft | 7 kts | 90° |
| 2026-05-06 08:25 | 33.64461 | -84.42864 | 1040 ft | 11 kts | 90° |
| 2026-05-06 08:26 | 33.64465 | -84.42759 | 1040 ft | 14 kts | 84° |
| 2026-05-06 08:26 | 33.64469 | -84.42635 | 1040 ft | 15 kts | 89° |
| 2026-05-06 08:26 | 33.64470 | -84.42503 | 1040 ft | 16 kts | 89° |
| 2026-05-06 08:26 | 33.64471 | -84.42409 | 1040 ft | 0 kts | 89° |
| 2026-05-06 08:27 | 33.64471 | -84.42398 | 1040 ft | 2 kts | 89° |
| 2026-05-06 08:27 | 33.64471 | -84.42373 | 1040 ft | 4 kts | 89° |
| 2026-05-06 08:27 | 33.64472 | -84.42327 | 1040 ft | 8 kts | 89° |
| 2026-05-06 08:27 | 33.64470 | -84.42282 | 1040 ft | 7 kts | 97° |
| 2026-05-06 08:28 | 33.64427 | -84.42245 | 1040 ft | 10 kts | 169° |
| 2026-05-06 08:28 | 33.64349 | -84.42239 | 1040 ft | 5 kts | 179° |
| 2026-05-06 08:28 | 33.64298 | -84.42239 | 1040 ft | 10 kts | 181° |
| 2026-05-06 08:28 | 33.64211 | -84.42242 | 1040 ft | 15 kts | 180° |
| 2026-05-06 08:29 | 33.64091 | -84.42244 | 1040 ft | 19 kts | 180° |
| 2026-05-06 08:29 | 33.63991 | -84.42243 | 1040 ft | 11 kts | 179° |
| 2026-05-06 08:29 | 33.63925 | -84.42240 | 1040 ft | 1 kts | 178° |
| 2026-05-06 08:29 | 33.63898 | -84.42239 | 1040 ft | 7 kts | 178° |
| 2026-05-06 08:30 | 33.63867 | -84.42239 | 1040 ft | 2 kts | 180° |
| 2026-05-06 08:30 | 33.63834 | -84.42238 | 1040 ft | 7 kts | 179° |
| 2026-05-06 08:30 | 33.63800 | -84.42238 | 1040 ft | 2 kts | 179° |
| 2026-05-06 08:30 | 33.63781 | -84.42238 | 1040 ft | 6 kts | 178° |
| 2026-05-06 08:31 | 33.63724 | -84.42237 | 1041 ft | 11 kts | 179° |
| 2026-05-06 08:31 | 33.63662 | -84.42291 | 1041 ft | 12 kts | 252° |
| 2026-05-06 08:31 | 33.63654 | -84.42373 | 1041 ft | 8 kts | 258° |
| 2026-05-06 08:31 | 33.63607 | -84.42405 | 1041 ft | 6 kts | 159° |
| 2026-05-06 08:32 | 33.63588 | -84.42353 | 1041 ft | 9 kts | 98° |
| 2026-05-06 08:32 | 33.63582 | -84.42257 | 1041 ft | 14 kts | 91° |
| 2026-05-06 08:32 | 33.63582 | -84.42120 | 1041 ft | 19 kts | 89° |
| 2026-05-06 08:32 | 33.63583 | -84.41991 | 1040 ft | 16 kts | 90° |
| 2026-05-06 08:33 | 33.63583 | -84.41868 | 1040 ft | 13 kts | 90° |
| 2026-05-06 08:33 | 33.63623 | -84.41795 | 1040 ft | 1 kts | 5° |
| 2026-05-06 08:33 | 33.63627 | -84.41794 | 1040 ft | 1 kts | 4° |
| 2026-05-06 08:33 | 33.63644 | -84.41793 | 1040 ft | 3 kts | 4° |
| 2026-05-06 08:34 | 33.63673 | -84.41792 | 1040 ft | 5 kts | 357° |
| 2026-05-06 08:34 | 33.63750 | -84.41823 | 1040 ft | 0 kts | 343° |
| 2026-05-06 08:34 | 33.63756 | -84.41826 | 1040 ft | 2 kts | 344° |
| 2026-05-06 08:35 | 33.63771 | -84.41830 | 1040 ft | 3 kts | 347° |
| 2026-05-06 08:35 | 33.63804 | -84.41830 | 1040 ft | 5 kts | 4° |
| 2026-05-06 08:35 | 33.63849 | -84.41825 | 1040 ft | 7 kts | 7° |
| 2026-05-06 08:35 | 33.63859 | -84.41822 | 1040 ft | 0 kts | 14° |
| 2026-05-06 08:36 | 33.63865 | -84.41820 | 1040 ft | 2 kts | 17° |
| 2026-05-06 08:36 | 33.63900 | -84.41793 | 1040 ft | 7 kts | 36° |
| 2026-05-06 08:36 | 33.63914 | -84.41785 | 1040 ft | 3 kts | 22° |
| 2026-05-06 08:37 | 33.63925 | -84.41779 | 1040 ft | 1 kts | 25° |
| 2026-05-06 08:37 | 33.63936 | -84.41775 | 1040 ft | 0 kts | 7° |
| 2026-05-06 08:37 | 33.63941 | -84.41776 | 1040 ft | 1 kts | 356° |
| 2026-05-06 08:37 | 33.63951 | -84.41781 | 1040 ft | 2 kts | 334° |
| 2026-05-06 08:38 | 33.63963 | -84.41795 | 1040 ft | 3 kts | 314° |
| 2026-05-06 08:38 | 33.63978 | -84.41819 | 1040 ft | 4 kts | 306° |
| 2026-05-06 08:38 | 33.63987 | -84.41834 | 1040 ft | 0 kts | 304° |